sensor_id;sensor_type;location;lat;lon;timestamp;temperature;humidity
55173;DHT22;41061;52.822;6.860;2023-02-19T06:15:06;5.80;99.90
55173;DHT22;41061;52.822;6.860;2023-02-19T06:17:33;5.70;99.90
55173;DHT22;41061;52.822;6.860;2023-02-19T06:19:59;5.70;99.90
55173;DHT22;41061;52.822;6.860;2023-02-19T06:22:25;5.60;99.90
55173;DHT22;41061;52.822;6.860;2023-02-19T06:24:51;5.60;99.90
55173;DHT22;41061;52.822;6.860;2023-02-19T06:27:17;5.60;99.90
55173;DHT22;41061;52.822;6.860;2023-02-19T06:29:43;5.60;99.90
55173;DHT22;41061;52.822;6.860;2023-02-19T06:32:09;5.60;99.90
55173;DHT22;41061;52.822;6.860;2023-02-19T06:34:35;5.50;99.90
55173;DHT22;41061;52.822;6.860;2023-02-19T06:37:01;5.50;99.90
55173;DHT22;41061;52.822;6.860;2023-02-19T06:39:27;5.50;99.90
55173;DHT22;41061;52.822;6.860;2023-02-19T06:41:56;5.50;99.90
55173;DHT22;41061;52.822;6.860;2023-02-19T06:44:22;5.50;99.90
55173;DHT22;41061;52.822;6.860;2023-02-19T06:46:48;5.40;99.90
55173;DHT22;41061;52.822;6.860;2023-02-19T06:49:14;5.40;99.90
55173;DHT22;41061;52.822;6.860;2023-02-19T06:51:40;5.40;99.90
55173;DHT22;41061;52.822;6.860;2023-02-19T06:54:06;5.40;99.90
55173;DHT22;41061;52.822;6.860;2023-02-19T06:56:34;5.40;99.90
55173;DHT22;41061;52.822;6.860;2023-02-19T06:59:02;5.40;99.90
55173;DHT22;41061;52.822;6.860;2023-02-19T07:01:30;5.40;99.90
55173;DHT22;41061;52.822;6.860;2023-02-19T07:03:56;5.30;99.90
55173;DHT22;41061;52.822;6.860;2023-02-19T07:06:23;5.30;99.90
55173;DHT22;41061;52.822;6.860;2023-02-19T07:08:50;5.30;99.90
55173;DHT22;41061;52.822;6.860;2023-02-19T07:11:16;5.30;99.90
55173;DHT22;41061;52.822;6.860;2023-02-19T07:13:43;5.30;99.90
55173;DHT22;41061;52.822;6.860;2023-02-19T07:16:10;5.40;99.90
55173;DHT22;41061;52.822;6.860;2023-02-19T07:18:37;5.40;99.90
55173;DHT22;41061;52.822;6.860;2023-02-19T07:23:29;5.40;99.90
55173;DHT22;41061;52.822;6.860;2023-02-19T07:25:54;5.40;99.90
55173;DHT22;41061;52.822;6.860;2023-02-19T07:28:20;5.40;99.90
55173;DHT22;41061;52.822;6.860;2023-02-19T07:30:46;5.40;99.90
55173;DHT22;41061;52.822;6.860;2023-02-19T07:33:11;5.40;99.90
55173;DHT22;41061;52.822;6.860;2023-02-19T07:35:37;5.40;99.90
55173;DHT22;41061;52.822;6.860;2023-02-19T07:38:08;5.40;99.90
55173;DHT22;41061;52.822;6.860;2023-02-19T07:40:33;5.40;99.90
55173;DHT22;41061;52.822;6.860;2023-02-19T07:43:01;5.40;99.90
55173;DHT22;41061;52.822;6.860;2023-02-19T07:45:26;5.50;99.90
55173;DHT22;41061;52.822;6.860;2023-02-19T07:47:52;5.40;99.90
55173;DHT22;41061;52.822;6.860;2023-02-19T07:50:17;5.50;99.90
55173;DHT22;41061;52.822;6.860;2023-02-19T07:52:43;5.50;99.90
55173;DHT22;41061;52.822;6.860;2023-02-19T07:55:09;5.50;99.90
55173;DHT22;41061;52.822;6.860;2023-02-19T07:57:34;5.50;99.90
55173;DHT22;41061;52.822;6.860;2023-02-19T08:00:00;5.60;99.90
55173;DHT22;41061;52.822;6.860;2023-02-19T08:02:26;5.50;99.90
55173;DHT22;41061;52.822;6.860;2023-02-19T08:05:10;5.50;99.90
55173;DHT22;41061;52.822;6.860;2023-02-19T08:07:37;5.50;99.90
55173;DHT22;41061;52.822;6.860;2023-02-19T08:10:04;5.60;99.90
55173;DHT22;41061;52.822;6.860;2023-02-19T08:12:55;5.60;99.90
55173;DHT22;41061;52.822;6.860;2023-02-19T08:15:40;5.60;99.90
55173;DHT22;41061;52.822;6.860;2023-02-19T08:18:07;5.60;99.90
55173;DHT22;41061;52.822;6.860;2023-02-19T08:20:32;5.60;99.90
55173;DHT22;41061;52.822;6.860;2023-02-19T08:22:58;5.70;99.90
55173;DHT22;41061;52.822;6.860;2023-02-19T08:25:24;5.60;99.90
55173;DHT22;41061;52.822;6.860;2023-02-19T08:27:50;5.60;99.90
55173;DHT22;41061;52.822;6.860;2023-02-19T08:30:16;5.60;99.90
55173;DHT22;41061;52.822;6.860;2023-02-19T08:32:42;5.70;99.90
55173;DHT22;41061;52.822;6.860;2023-02-19T08:35:07;5.80;99.90
55173;DHT22;41061;52.822;6.860;2023-02-19T08:37:33;5.80;99.90
55173;DHT22;41061;52.822;6.860;2023-02-19T08:39:59;6.00;99.90
55173;DHT22;41061;52.822;6.860;2023-02-19T08:42:24;6.00;99.90
55173;DHT22;41061;52.822;6.860;2023-02-19T08:44:50;6.20;99.90
55173;DHT22;41061;52.822;6.860;2023-02-19T08:47:16;6.20;99.90
55173;DHT22;41061;52.822;6.860;2023-02-19T08:49:41;6.30;99.90
55173;DHT22;41061;52.822;6.860;2023-02-19T08:52:07;6.30;99.90
55173;DHT22;41061;52.822;6.860;2023-02-19T08:54:33;6.40;99.90
55173;DHT22;41061;52.822;6.860;2023-02-19T08:56:58;6.50;99.90
55173;DHT22;41061;52.822;6.860;2023-02-19T08:59:24;6.50;99.90
55173;DHT22;41061;52.822;6.860;2023-02-19T09:01:50;6.70;99.90
55173;DHT22;41061;52.822;6.860;2023-02-19T09:04:17;6.80;99.90
55173;DHT22;41061;52.822;6.860;2023-02-19T09:06:42;6.90;99.90
55173;DHT22;41061;52.822;6.860;2023-02-19T09:09:08;7.00;99.90
55173;DHT22;41061;52.822;6.860;2023-02-19T09:11:34;7.10;99.90
55173;DHT22;41061;52.822;6.860;2023-02-19T09:14:02;7.20;99.90
55173;DHT22;41061;52.822;6.860;2023-02-19T09:16:32;7.40;99.90
55173;DHT22;41061;52.822;6.860;2023-02-19T09:18:58;7.40;99.90
55173;DHT22;41061;52.822;6.860;2023-02-19T09:21:24;7.30;99.90
55173;DHT22;41061;52.822;6.860;2023-02-19T09:23:49;7.30;99.90
55173;DHT22;41061;52.822;6.860;2023-02-19T09:26:15;7.20;99.90
55173;DHT22;41061;52.822;6.860;2023-02-19T09:28:41;7.10;99.90
55173;DHT22;41061;52.822;6.860;2023-02-19T09:31:09;7.10;99.90
55173;DHT22;41061;52.822;6.860;2023-02-19T09:33:36;7.20;99.90
55173;DHT22;41061;52.822;6.860;2023-02-19T09:36:02;7.30;99.90
55173;DHT22;41061;52.822;6.860;2023-02-19T09:38:28;7.40;99.90
55173;DHT22;41061;52.822;6.860;2023-02-19T09:40:58;7.50;99.90
55173;DHT22;41061;52.822;6.860;2023-02-19T09:43:31;7.50;99.90
55173;DHT22;41061;52.822;6.860;2023-02-19T09:46:08;7.40;99.90
55173;DHT22;41061;52.822;6.860;2023-02-19T09:48:36;7.30;99.90
55173;DHT22;41061;52.822;6.860;2023-02-19T09:51:02;7.20;99.90
55173;DHT22;41061;52.822;6.860;2023-02-19T09:53:36;7.10;99.90
55173;DHT22;41061;52.822;6.860;2023-02-19T09:56:06;7.00;99.90
55173;DHT22;41061;52.822;6.860;2023-02-19T09:58:34;7.00;99.90
55173;DHT22;41061;52.822;6.860;2023-02-19T10:01:02;6.90;99.90
55173;DHT22;41061;52.822;6.860;2023-02-19T10:03:35;6.80;99.90
55173;DHT22;41061;52.822;6.860;2023-02-19T10:06:24;6.90;99.90
55173;DHT22;41061;52.822;6.860;2023-02-19T10:08:55;7.10;99.90
55173;DHT22;41061;52.822;6.860;2023-02-19T10:11:24;7.40;99.90
55173;DHT22;41061;52.822;6.860;2023-02-19T10:14:05;7.60;99.90
55173;DHT22;41061;52.822;6.860;2023-02-19T10:16:35;7.70;99.90
55173;DHT22;41061;52.822;6.860;2023-02-19T10:19:14;7.70;99.90
55173;DHT22;41061;52.822;6.860;2023-02-19T10:21:41;7.70;99.90
55173;DHT22;41061;52.822;6.860;2023-02-19T10:24:19;7.60;99.90
55173;DHT22;41061;52.822;6.860;2023-02-19T10:26:46;7.60;99.90
55173;DHT22;41061;52.822;6.860;2023-02-19T10:29:11;7.40;99.90
55173;DHT22;41061;52.822;6.860;2023-02-19T10:31:37;7.30;99.90
55173;DHT22;41061;52.822;6.860;2023-02-19T10:34:03;7.30;99.90
55173;DHT22;41061;52.822;6.860;2023-02-19T10:36:40;7.30;99.90
55173;DHT22;41061;52.822;6.860;2023-02-19T10:39:27;7.30;99.90
55173;DHT22;41061;52.822;6.860;2023-02-19T10:41:55;7.30;99.90
55173;DHT22;41061;52.822;6.860;2023-02-19T10:44:24;7.30;99.90
55173;DHT22;41061;52.822;6.860;2023-02-19T10:46:53;7.50;99.90
55173;DHT22;41061;52.822;6.860;2023-02-19T10:49:26;7.70;99.90
55173;DHT22;41061;52.822;6.860;2023-02-19T10:51:58;8.00;99.90
55173;DHT22;41061;52.822;6.860;2023-02-19T10:54:29;8.10;99.90
55173;DHT22;41061;52.822;6.860;2023-02-19T10:59:56;8.00;99.90
55173;DHT22;41061;52.822;6.860;2023-02-19T11:02:22;7.90;99.90
55173;DHT22;41061;52.822;6.860;2023-02-19T11:07:29;8.00;99.90
55173;DHT22;41061;52.822;6.860;2023-02-19T11:09:56;8.10;99.90
55173;DHT22;41061;52.822;6.860;2023-02-19T11:12:33;8.30;99.90
55173;DHT22;41061;52.822;6.860;2023-02-19T11:15:12;8.50;99.90
55173;DHT22;41061;52.822;6.860;2023-02-19T11:17:42;8.60;99.90
55173;DHT22;41061;52.822;6.860;2023-02-19T11:20:17;8.80;99.90
55173;DHT22;41061;52.822;6.860;2023-02-19T11:22:43;8.80;99.90
55173;DHT22;41061;52.822;6.860;2023-02-19T11:28:02;8.80;99.90
55173;DHT22;41061;52.822;6.860;2023-02-19T11:31:31;8.90;99.90
55173;DHT22;41061;52.822;6.860;2023-02-19T11:34:00;9.10;99.90
55173;DHT22;41061;52.822;6.860;2023-02-19T11:39:10;9.30;99.90
55173;DHT22;41061;52.822;6.860;2023-02-19T11:44:15;9.10;99.90
55173;DHT22;41061;52.822;6.860;2023-02-19T11:49:32;8.80;99.90
55173;DHT22;41061;52.822;6.860;2023-02-19T11:52:20;8.70;99.90
55173;DHT22;41061;52.822;6.860;2023-02-19T15:34:59;8.90;99.90
55173;DHT22;41061;52.822;6.860;2023-02-19T15:37:29;8.90;99.90
55173;DHT22;41061;52.822;6.860;2023-02-19T15:39:56;8.80;99.90
55173;DHT22;41061;52.822;6.860;2023-02-19T15:42:25;8.70;99.90
55173;DHT22;41061;52.822;6.860;2023-02-19T15:47:27;8.70;99.90
55173;DHT22;41061;52.822;6.860;2023-02-19T15:52:37;8.70;99.90
55173;DHT22;41061;52.822;6.860;2023-02-19T15:55:22;8.80;99.90
55173;DHT22;41061;52.822;6.860;2023-02-19T15:58:26;8.80;99.90
55173;DHT22;41061;52.822;6.860;2023-02-19T16:00:57;8.80;99.90
55173;DHT22;41061;52.822;6.860;2023-02-19T16:10:23;8.60;99.90
55173;DHT22;41061;52.822;6.860;2023-02-19T16:12:59;8.60;99.90
55173;DHT22;41061;52.822;6.860;2023-02-19T16:15:27;8.60;99.90
55173;DHT22;41061;52.822;6.860;2023-02-19T16:17:54;8.50;99.90
55173;DHT22;41061;52.822;6.860;2023-02-19T16:20:38;8.50;99.90
55173;DHT22;41061;52.822;6.860;2023-02-19T16:23:14;8.40;99.90
55173;DHT22;41061;52.822;6.860;2023-02-19T16:25:43;8.40;99.90
55173;DHT22;41061;52.822;6.860;2023-02-19T16:28:20;8.30;99.90
55173;DHT22;41061;52.822;6.860;2023-02-19T16:30:54;8.30;99.90
55173;DHT22;41061;52.822;6.860;2023-02-19T16:36:35;8.10;99.90
55173;DHT22;41061;52.822;6.860;2023-02-19T16:41:36;8.00;99.90
55173;DHT22;41061;52.822;6.860;2023-02-19T16:46:56;7.90;99.90
55173;DHT22;41061;52.822;6.860;2023-02-19T16:49:24;7.90;99.90
55173;DHT22;41061;52.822;6.860;2023-02-19T16:51:53;7.90;99.90
55173;DHT22;41061;52.822;6.860;2023-02-19T16:54:19;7.80;99.90
55173;DHT22;41061;52.822;6.860;2023-02-19T16:56:45;7.80;99.90
55173;DHT22;41061;52.822;6.860;2023-02-19T16:59:11;7.80;99.90
55173;DHT22;41061;52.822;6.860;2023-02-19T17:01:37;7.80;99.90
55173;DHT22;41061;52.822;6.860;2023-02-19T17:04:08;7.80;99.90
55173;DHT22;41061;52.822;6.860;2023-02-19T17:06:35;7.80;99.90
55173;DHT22;41061;52.822;6.860;2023-02-19T17:09:06;7.70;99.90
55173;DHT22;41061;52.822;6.860;2023-02-19T17:11:32;7.80;99.90
55173;DHT22;41061;52.822;6.860;2023-02-19T17:13:58;7.80;99.90
55173;DHT22;41061;52.822;6.860;2023-02-19T17:16:26;7.80;99.90
55173;DHT22;41061;52.822;6.860;2023-02-19T17:18:53;7.80;99.90
55173;DHT22;41061;52.822;6.860;2023-02-19T17:21:25;7.80;99.90
55173;DHT22;41061;52.822;6.860;2023-02-19T17:23:51;7.80;99.90
55173;DHT22;41061;52.822;6.860;2023-02-19T17:26:24;7.70;99.90
55173;DHT22;41061;52.822;6.860;2023-02-19T17:28:50;7.80;99.90
55173;DHT22;41061;52.822;6.860;2023-02-19T17:31:16;7.80;99.90
55173;DHT22;41061;52.822;6.860;2023-02-19T17:33:42;7.80;99.90
55173;DHT22;41061;52.822;6.860;2023-02-19T17:36:33;7.80;99.90
55173;DHT22;41061;52.822;6.860;2023-02-19T17:39:00;7.70;99.90
55173;DHT22;41061;52.822;6.860;2023-02-19T17:41:26;7.70;99.90
55173;DHT22;41061;52.822;6.860;2023-02-19T17:43:52;7.70;99.90
55173;DHT22;41061;52.822;6.860;2023-02-19T17:46:21;7.60;99.90
55173;DHT22;41061;52.822;6.860;2023-02-19T17:48:47;7.60;99.90
55173;DHT22;41061;52.822;6.860;2023-02-19T17:51:13;7.50;99.90
55173;DHT22;41061;52.822;6.860;2023-02-19T17:53:40;7.50;99.90
55173;DHT22;41061;52.822;6.860;2023-02-19T17:56:06;7.40;99.90
55173;DHT22;41061;52.822;6.860;2023-02-19T17:58:31;7.40;99.90
55173;DHT22;41061;52.822;6.860;2023-02-19T18:00:57;7.40;99.90
55173;DHT22;41061;52.822;6.860;2023-02-19T18:03:23;7.30;99.90
55173;DHT22;41061;52.822;6.860;2023-02-19T18:05:49;7.30;99.90
55173;DHT22;41061;52.822;6.860;2023-02-19T18:08:15;7.20;99.90
55173;DHT22;41061;52.822;6.860;2023-02-19T18:10:41;7.20;99.90
55173;DHT22;41061;52.822;6.860;2023-02-19T18:13:06;7.20;99.90
55173;DHT22;41061;52.822;6.860;2023-02-19T18:15:33;7.20;99.90
55173;DHT22;41061;52.822;6.860;2023-02-19T18:17:59;7.20;99.90
55173;DHT22;41061;52.822;6.860;2023-02-19T18:20:26;7.20;99.90
55173;DHT22;41061;52.822;6.860;2023-02-19T18:22:54;7.20;99.90
55173;DHT22;41061;52.822;6.860;2023-02-19T18:25:20;7.20;99.90
55173;DHT22;41061;52.822;6.860;2023-02-19T18:27:47;7.20;99.90
55173;DHT22;41061;52.822;6.860;2023-02-19T18:30:15;7.20;99.90
55173;DHT22;41061;52.822;6.860;2023-02-19T18:32:42;7.20;99.90
55173;DHT22;41061;52.822;6.860;2023-02-19T18:35:08;7.20;99.90
55173;DHT22;41061;52.822;6.860;2023-02-19T18:37:40;7.20;99.90
55173;DHT22;41061;52.822;6.860;2023-02-19T18:40:06;7.20;99.90
55173;DHT22;41061;52.822;6.860;2023-02-19T18:42:32;7.10;99.90
55173;DHT22;41061;52.822;6.860;2023-02-19T18:44:58;7.20;99.90
55173;DHT22;41061;52.822;6.860;2023-02-19T18:47:24;7.10;99.90
55173;DHT22;41061;52.822;6.860;2023-02-19T18:49:55;7.10;99.90
55173;DHT22;41061;52.822;6.860;2023-02-19T18:52:23;7.10;99.90
55173;DHT22;41061;52.822;6.860;2023-02-19T18:54:50;7.10;99.90
55173;DHT22;41061;52.822;6.860;2023-02-19T18:57:18;7.00;99.90
55173;DHT22;41061;52.822;6.860;2023-02-19T18:59:44;7.00;99.90
55173;DHT22;41061;52.822;6.860;2023-02-19T19:02:10;7.00;99.90
55173;DHT22;41061;52.822;6.860;2023-02-19T19:04:37;7.00;99.90
55173;DHT22;41061;52.822;6.860;2023-02-19T19:07:07;6.90;99.90
55173;DHT22;41061;52.822;6.860;2023-02-19T19:09:34;6.90;99.90
55173;DHT22;41061;52.822;6.860;2023-02-19T19:12:00;6.80;99.90
55173;DHT22;41061;52.822;6.860;2023-02-19T19:14:28;6.80;99.90
55173;DHT22;41061;52.822;6.860;2023-02-19T19:16:54;6.90;99.90
55173;DHT22;41061;52.822;6.860;2023-02-19T19:19:20;6.80;99.90
55173;DHT22;41061;52.822;6.860;2023-02-19T19:21:53;6.80;99.90
55173;DHT22;41061;52.822;6.860;2023-02-19T19:24:20;6.80;99.90
55173;DHT22;41061;52.822;6.860;2023-02-19T19:26:48;6.80;99.90
55173;DHT22;41061;52.822;6.860;2023-02-19T19:29:17;6.80;99.90
55173;DHT22;41061;52.822;6.860;2023-02-19T19:31:44;6.70;99.90
55173;DHT22;41061;52.822;6.860;2023-02-19T19:34:10;6.70;99.90
55173;DHT22;41061;52.822;6.860;2023-02-19T19:36:37;6.80;99.90
55173;DHT22;41061;52.822;6.860;2023-02-19T19:39:03;6.70;99.90
55173;DHT22;41061;52.822;6.860;2023-02-19T19:41:28;6.70;99.90
55173;DHT22;41061;52.822;6.860;2023-02-19T19:43:54;6.80;99.90
55173;DHT22;41061;52.822;6.860;2023-02-19T19:46:20;6.70;99.90
55173;DHT22;41061;52.822;6.860;2023-02-19T19:48:50;6.70;99.90
55173;DHT22;41061;52.822;6.860;2023-02-19T19:51:17;6.70;99.90
55173;DHT22;41061;52.822;6.860;2023-02-19T19:53:46;6.70;99.90
55173;DHT22;41061;52.822;6.860;2023-02-19T19:56:12;6.70;99.90
55173;DHT22;41061;52.822;6.860;2023-02-19T19:58:38;6.70;99.90
55173;DHT22;41061;52.822;6.860;2023-02-19T20:01:05;6.70;99.90
55173;DHT22;41061;52.822;6.860;2023-02-19T20:03:31;6.70;99.90
55173;DHT22;41061;52.822;6.860;2023-02-19T20:05:57;6.60;99.90
55173;DHT22;41061;52.822;6.860;2023-02-19T20:08:23;6.60;99.90
55173;DHT22;41061;52.822;6.860;2023-02-19T20:10:49;6.70;99.90
55173;DHT22;41061;52.822;6.860;2023-02-19T20:13:16;6.60;99.90
55173;DHT22;41061;52.822;6.860;2023-02-19T20:15:42;6.60;99.90
55173;DHT22;41061;52.822;6.860;2023-02-19T20:18:08;6.60;99.90
55173;DHT22;41061;52.822;6.860;2023-02-19T20:20:33;6.60;99.90
55173;DHT22;41061;52.822;6.860;2023-02-19T20:26:09;6.60;99.90
55173;DHT22;41061;52.822;6.860;2023-02-19T20:28:34;6.60;99.90
55173;DHT22;41061;52.822;6.860;2023-02-19T20:31:03;6.60;99.90
55173;DHT22;41061;52.822;6.860;2023-02-19T20:33:29;6.70;99.90
55173;DHT22;41061;52.822;6.860;2023-02-19T20:35:55;6.60;99.90
55173;DHT22;41061;52.822;6.860;2023-02-19T20:38:21;6.60;99.90
55173;DHT22;41061;52.822;6.860;2023-02-19T20:40:47;6.60;99.90
55173;DHT22;41061;52.822;6.860;2023-02-19T20:43:13;6.50;99.90
55173;DHT22;41061;52.822;6.860;2023-02-19T20:45:39;6.60;99.90
55173;DHT22;41061;52.822;6.860;2023-02-19T20:48:08;6.50;99.90
55173;DHT22;41061;52.822;6.860;2023-02-19T20:50:33;6.50;99.90
55173;DHT22;41061;52.822;6.860;2023-02-19T20:52:59;6.40;99.90
55173;DHT22;41061;52.822;6.860;2023-02-19T20:55:25;6.40;99.90
55173;DHT22;41061;52.822;6.860;2023-02-19T20:57:50;6.40;99.90
55173;DHT22;41061;52.822;6.860;2023-02-19T21:00:17;6.30;99.90
55173;DHT22;41061;52.822;6.860;2023-02-19T21:02:42;6.30;99.90
55173;DHT22;41061;52.822;6.860;2023-02-19T21:05:09;6.40;99.90
55173;DHT22;41061;52.822;6.860;2023-02-19T21:07:35;6.30;99.90
55173;DHT22;41061;52.822;6.860;2023-02-19T21:10:00;6.30;99.90
55173;DHT22;41061;52.822;6.860;2023-02-19T21:12:26;6.30;99.90
55173;DHT22;41061;52.822;6.860;2023-02-19T21:14:52;6.30;99.90
55173;DHT22;41061;52.822;6.860;2023-02-19T21:17:18;6.30;99.90
55173;DHT22;41061;52.822;6.860;2023-02-19T21:19:45;6.30;99.90
55173;DHT22;41061;52.822;6.860;2023-02-19T21:22:11;6.30;99.90
55173;DHT22;41061;52.822;6.860;2023-02-19T21:24:37;6.40;99.90
55173;DHT22;41061;52.822;6.860;2023-02-19T21:27:03;6.40;99.90
55173;DHT22;41061;52.822;6.860;2023-02-19T21:29:31;6.40;99.90
55173;DHT22;41061;52.822;6.860;2023-02-19T21:31:57;6.40;99.90
55173;DHT22;41061;52.822;6.860;2023-02-19T21:34:27;6.30;99.90
55173;DHT22;41061;52.822;6.860;2023-02-19T21:36:54;6.30;99.90
55173;DHT22;41061;52.822;6.860;2023-02-19T21:39:24;6.40;99.90
55173;DHT22;41061;52.822;6.860;2023-02-19T21:41:50;6.50;99.90
55173;DHT22;41061;52.822;6.860;2023-02-19T21:44:18;6.30;99.90
55173;DHT22;41061;52.822;6.860;2023-02-19T21:46:45;6.30;99.90
55173;DHT22;41061;52.822;6.860;2023-02-19T21:49:11;6.30;99.90
55173;DHT22;41061;52.822;6.860;2023-02-19T21:51:39;6.30;99.90
55173;DHT22;41061;52.822;6.860;2023-02-19T21:54:07;6.30;99.90
55173;DHT22;41061;52.822;6.860;2023-02-19T21:56:34;6.30;99.90
55173;DHT22;41061;52.822;6.860;2023-02-19T21:59:00;6.30;99.90
55173;DHT22;41061;52.822;6.860;2023-02-19T22:01:36;6.30;99.90
55173;DHT22;41061;52.822;6.860;2023-02-19T22:04:13;6.40;99.90
55173;DHT22;41061;52.822;6.860;2023-02-19T22:06:39;6.40;99.90
55173;DHT22;41061;52.822;6.860;2023-02-19T22:09:07;6.30;99.90
55173;DHT22;41061;52.822;6.860;2023-02-19T22:11:33;6.40;99.90
55173;DHT22;41061;52.822;6.860;2023-02-19T22:13:59;6.40;99.90
55173;DHT22;41061;52.822;6.860;2023-02-19T22:16:25;6.40;99.90
55173;DHT22;41061;52.822;6.860;2023-02-19T22:18:56;6.30;99.90
55173;DHT22;41061;52.822;6.860;2023-02-19T22:21:27;6.40;99.90
55173;DHT22;41061;52.822;6.860;2023-02-19T22:23:54;6.30;99.90
55173;DHT22;41061;52.822;6.860;2023-02-19T22:26:28;6.30;99.90
55173;DHT22;41061;52.822;6.860;2023-02-19T22:28:55;6.30;99.90
55173;DHT22;41061;52.822;6.860;2023-02-19T22:31:24;6.30;99.90
55173;DHT22;41061;52.822;6.860;2023-02-19T22:33:51;6.30;99.90
55173;DHT22;41061;52.822;6.860;2023-02-19T22:36:22;6.20;99.90
55173;DHT22;41061;52.822;6.860;2023-02-19T22:38:49;6.30;99.90
55173;DHT22;41061;52.822;6.860;2023-02-19T22:41:16;6.20;99.90
55173;DHT22;41061;52.822;6.860;2023-02-19T22:43:42;6.20;99.90
55173;DHT22;41061;52.822;6.860;2023-02-19T22:46:18;6.30;99.90
55173;DHT22;41061;52.822;6.860;2023-02-19T22:48:44;6.20;99.90
55173;DHT22;41061;52.822;6.860;2023-02-19T22:51:12;6.20;99.90
55173;DHT22;41061;52.822;6.860;2023-02-19T22:53:42;6.20;99.90
55173;DHT22;41061;52.822;6.860;2023-02-19T22:56:09;6.30;99.90
55173;DHT22;41061;52.822;6.860;2023-02-19T22:58:34;6.20;99.90
55173;DHT22;41061;52.822;6.860;2023-02-19T23:01:00;6.30;99.90
55173;DHT22;41061;52.822;6.860;2023-02-19T23:03:26;6.30;99.90
55173;DHT22;41061;52.822;6.860;2023-02-19T23:05:52;6.20;99.90
55173;DHT22;41061;52.822;6.860;2023-02-19T23:08:20;6.20;99.90
55173;DHT22;41061;52.822;6.860;2023-02-19T23:10:46;6.20;99.90
55173;DHT22;41061;52.822;6.860;2023-02-19T23:13:12;6.20;99.90
55173;DHT22;41061;52.822;6.860;2023-02-19T23:15:37;6.20;99.90
55173;DHT22;41061;52.822;6.860;2023-02-19T23:18:03;6.30;99.90
55173;DHT22;41061;52.822;6.860;2023-02-19T23:20:30;6.20;99.90
55173;DHT22;41061;52.822;6.860;2023-02-19T23:22:56;6.20;99.90
55173;DHT22;41061;52.822;6.860;2023-02-19T23:25:22;6.20;99.90
55173;DHT22;41061;52.822;6.860;2023-02-19T23:27:48;6.10;99.90
55173;DHT22;41061;52.822;6.860;2023-02-19T23:30:14;6.20;99.90
55173;DHT22;41061;52.822;6.860;2023-02-19T23:32:41;6.10;99.90
55173;DHT22;41061;52.822;6.860;2023-02-19T23:35:07;6.10;99.90
55173;DHT22;41061;52.822;6.860;2023-02-19T23:37:33;6.10;99.90
55173;DHT22;41061;52.822;6.860;2023-02-19T23:39:59;6.00;99.90
55173;DHT22;41061;52.822;6.860;2023-02-19T23:42:25;6.00;99.90
55173;DHT22;41061;52.822;6.860;2023-02-19T23:44:50;6.00;99.90
55173;DHT22;41061;52.822;6.860;2023-02-19T23:47:16;6.00;99.90
55173;DHT22;41061;52.822;6.860;2023-02-19T23:49:42;6.00;99.90
55173;DHT22;41061;52.822;6.860;2023-02-19T23:52:08;6.00;99.90
55173;DHT22;41061;52.822;6.860;2023-02-19T23:54:34;6.00;99.90
55173;DHT22;41061;52.822;6.860;2023-02-19T23:56:59;6.00;99.90
55173;DHT22;41061;52.822;6.860;2023-02-19T23:59:25;6.00;99.90
